createdAt,value
2018-06-25T05:08:01.899Z,989.09
2018-06-25T05:09:00.118Z,989.08
2018-06-25T05:10:00.128Z,989.10
2018-06-25T05:11:00.130Z,989.11
2018-06-25T05:12:00.133Z,989.13
2018-06-25T05:13:00.137Z,989.12
2018-06-25T05:14:00.142Z,989.11
2018-06-25T05:15:00.149Z,989.15
2018-06-25T05:16:00.152Z,989.11
2018-06-25T05:17:00.157Z,989.10
2018-06-25T05:18:00.161Z,989.11
2018-06-25T05:19:00.167Z,989.12
2018-06-25T05:20:00.178Z,989.16
2018-06-25T05:21:00.181Z,989.13
2018-06-25T05:22:00.181Z,989.11
2018-06-25T05:23:00.189Z,989.17
2018-06-25T05:24:00.193Z,989.15
2018-06-25T05:25:00.194Z,989.13
2018-06-25T05:26:00.211Z,989.12
2018-06-25T05:27:00.206Z,989.16
2018-06-25T05:28:00.209Z,989.15
2018-06-25T05:29:00.215Z,989.18
2018-06-25T05:30:00.221Z,989.17
2018-06-25T05:31:00.247Z,989.17
2018-06-25T05:32:00.233Z,989.17
2018-06-25T05:33:00.234Z,989.21
2018-06-25T05:34:00.239Z,989.24
2018-06-25T05:35:00.253Z,989.20
2018-06-25T05:36:00.257Z,989.21
2018-06-25T05:37:00.257Z,989.27
2018-06-25T05:38:00.258Z,989.26
2018-06-25T05:39:00.275Z,989.24
2018-06-25T05:40:00.284Z,989.25
2018-06-25T05:41:00.277Z,989.26
2018-06-25T05:42:00.300Z,989.25
2018-06-25T05:43:00.294Z,989.24
2018-06-25T05:44:00.288Z,989.27
2018-06-25T05:45:00.298Z,989.25
2018-06-25T05:46:00.299Z,989.22
2018-06-25T05:47:00.305Z,989.29
2018-06-25T05:48:00.356Z,989.28
2018-06-25T05:49:00.317Z,989.27
2018-06-25T05:50:01.178Z,989.28
2018-06-25T05:51:01.142Z,989.27
2018-06-25T05:52:01.768Z,989.32
2018-06-25T05:53:01.145Z,989.30
2018-06-25T05:54:01.037Z,989.33
2018-06-25T05:55:01.089Z,989.35
2018-06-25T05:56:01.720Z,989.40
2018-06-25T05:57:01.794Z,989.42
2018-06-25T05:58:00.408Z,989.44
2018-06-25T05:59:00.477Z,989.44
2018-06-25T06:00:00.372Z,989.44
2018-06-25T06:01:00.375Z,989.47
2018-06-25T06:02:00.454Z,989.46
2018-06-25T06:03:00.385Z,989.48
2018-06-25T06:04:00.388Z,989.51
2018-06-25T06:05:00.397Z,989.48
2018-06-25T06:06:00.501Z,989.52
2018-06-25T06:07:00.407Z,989.55
2018-06-25T06:08:00.413Z,989.53
2018-06-25T06:09:00.448Z,989.51
2018-06-25T06:10:00.422Z,989.55
2018-06-25T06:11:00.425Z,989.57
2018-06-25T06:12:00.431Z,989.58
2018-06-25T06:13:00.438Z,989.55
2018-06-25T06:14:00.497Z,989.56
2018-06-25T06:15:00.453Z,989.61
2018-06-25T06:16:00.452Z,989.57
2018-06-25T06:17:00.456Z,989.60
2018-06-25T06:18:00.463Z,989.59
2018-06-25T06:19:00.470Z,989.61
2018-06-25T06:20:00.545Z,989.63
2018-06-25T06:21:00.482Z,989.63
2018-06-25T06:22:00.490Z,989.61
2018-06-25T06:23:00.509Z,989.63
2018-06-25T06:24:00.498Z,989.63
2018-06-25T06:25:00.513Z,989.60
2018-06-25T06:26:00.505Z,989.64
2018-06-25T06:27:00.512Z,989.67
2018-06-25T06:28:00.521Z,989.66
2018-06-25T06:29:00.587Z,989.69
2018-06-25T06:30:00.528Z,989.69
2018-06-25T06:31:00.531Z,989.68
2018-06-25T06:32:00.606Z,989.67
2018-06-25T06:33:00.559Z,989.69
2018-06-25T06:34:00.549Z,989.69
2018-06-25T06:35:00.551Z,989.72
2018-06-25T06:36:00.590Z,989.75
2018-06-25T06:37:00.592Z,989.79
2018-06-25T06:38:00.571Z,989.78
2018-06-25T06:39:00.576Z,989.79
2018-06-25T06:40:00.636Z,989.79
2018-06-25T06:41:00.620Z,989.77
2018-06-25T06:42:00.588Z,989.80
2018-06-25T06:43:00.599Z,989.79
2018-06-25T06:44:00.600Z,989.82
2018-06-25T06:45:01.490Z,989.81
2018-06-25T06:46:00.625Z,989.83
2018-06-25T06:47:00.716Z,989.82
2018-06-25T06:48:00.707Z,989.80
2018-06-25T06:49:00.725Z,989.80
2018-06-25T06:50:00.721Z,989.83
2018-06-25T06:51:00.734Z,989.81
2018-06-25T06:52:00.665Z,989.87
2018-06-25T06:53:01.589Z,989.80
2018-06-25T06:54:00.687Z,989.83
2018-06-25T06:55:00.744Z,989.81
2018-06-25T06:56:00.714Z,989.81
2018-06-25T06:57:00.671Z,989.82
2018-06-25T06:58:00.678Z,989.81
2018-06-25T06:59:00.687Z,989.81
2018-06-25T07:00:00.686Z,989.85
2018-06-25T07:01:00.696Z,989.81
2018-06-25T07:02:00.697Z,989.85
2018-06-25T07:03:00.709Z,989.87
2018-06-25T07:04:00.718Z,989.86
2018-06-25T07:05:00.714Z,989.86
2018-06-25T07:06:00.763Z,989.86
2018-06-25T07:07:00.724Z,989.86
2018-06-25T07:08:00.796Z,989.87
2018-06-25T07:09:00.737Z,989.87
2018-06-25T07:10:00.745Z,989.86
2018-06-25T07:11:00.756Z,989.88
2018-06-25T07:12:00.752Z,989.90
2018-06-25T07:13:00.816Z,989.90
2018-06-25T07:14:00.903Z,989.90
2018-06-25T07:15:00.830Z,989.87
2018-06-25T07:16:00.870Z,989.91
2018-06-25T07:17:00.787Z,989.91
2018-06-25T07:18:00.857Z,989.94
2018-06-25T07:19:00.872Z,989.92
2018-06-25T07:20:00.807Z,989.94
2018-06-25T07:21:00.828Z,989.92
2018-06-25T07:22:00.857Z,989.91
2018-06-25T07:23:00.817Z,989.91
2018-06-25T07:24:00.826Z,989.89
2018-06-25T07:25:00.938Z,989.94
2018-06-25T07:26:00.894Z,989.92
2018-06-25T07:27:00.848Z,989.92
2018-06-25T07:28:00.899Z,989.91
2018-06-25T07:29:00.868Z,989.91
2018-06-25T07:30:00.905Z,989.91
2018-06-25T07:31:00.864Z,989.89
2018-06-25T07:32:00.874Z,989.90
2018-06-25T07:33:01.361Z,989.95
2018-06-25T07:34:02.312Z,989.91
2018-06-25T07:35:01.671Z,989.95
2018-06-25T07:36:01.996Z,989.89
2018-06-25T07:37:02.321Z,989.88
2018-06-25T07:38:02.321Z,989.92
2018-06-25T07:39:01.727Z,989.90
2018-06-25T07:40:02.254Z,989.89
2018-06-25T07:41:02.502Z,989.89
2018-06-25T07:42:01.014Z,989.91
2018-06-25T07:43:00.953Z,989.90
2018-06-25T07:44:02.293Z,989.90
2018-06-25T07:45:01.758Z,989.90
2018-06-25T07:46:02.689Z,989.91
2018-06-25T07:47:01.678Z,989.85
2018-06-25T07:48:02.388Z,989.88
2018-06-25T07:49:02.251Z,989.87
2018-06-25T07:50:02.694Z,989.85
2018-06-25T07:51:02.671Z,989.88
2018-06-25T07:52:01.608Z,989.88
2018-06-25T07:53:02.471Z,989.88
2018-06-25T07:54:00.998Z,989.88
2018-06-25T07:55:01.020Z,989.87
2018-06-25T07:56:01.067Z,989.90
2018-06-25T07:57:01.005Z,989.89
2018-06-25T07:58:01.015Z,989.91
2018-06-25T07:59:01.016Z,989.86
2018-06-25T08:00:01.044Z,989.88
2018-06-25T08:01:01.030Z,989.87
2018-06-25T08:02:01.032Z,989.87
2018-06-25T08:03:01.060Z,989.91
2018-06-25T08:04:01.044Z,989.88
2018-06-25T08:05:01.165Z,989.92
2018-06-25T08:06:01.055Z,989.94
2018-06-25T08:07:01.065Z,989.94
2018-06-25T08:08:01.132Z,989.96
2018-06-25T08:09:01.074Z,989.96
2018-06-25T08:10:01.119Z,989.97
2018-06-25T08:11:01.099Z,989.95
2018-06-25T08:12:01.117Z,990.00
2018-06-25T08:13:01.179Z,990.00
2018-06-25T08:14:03.985Z,990.04
2018-06-25T08:15:01.121Z,990.04
2018-06-25T08:16:01.212Z,990.04
2018-06-25T08:17:01.140Z,990.08
2018-06-25T08:18:01.226Z,990.08
2018-06-25T08:19:01.131Z,990.10
2018-06-25T08:20:01.137Z,990.07
2018-06-25T08:21:01.154Z,990.11
2018-06-25T08:22:01.145Z,990.14
2018-06-25T08:23:01.213Z,990.14
2018-06-25T08:24:01.157Z,990.13
2018-06-25T08:25:01.164Z,990.12
2018-06-25T08:26:01.170Z,990.15
2018-06-25T08:27:01.189Z,990.17
2018-06-25T08:28:01.217Z,990.18
2018-06-25T08:29:01.204Z,990.17
2018-06-25T08:30:01.403Z,990.17
2018-06-25T08:31:01.233Z,990.21
2018-06-25T08:32:01.206Z,990.19
2018-06-25T08:33:01.249Z,990.20
2018-06-25T08:34:01.265Z,990.22
2018-06-25T08:35:01.227Z,990.18
2018-06-25T08:36:01.236Z,990.20
2018-06-25T08:37:01.287Z,990.22
2018-06-25T08:38:01.243Z,990.20
2018-06-25T08:39:01.255Z,990.22
2018-06-25T08:40:01.275Z,990.22
2018-06-25T08:41:01.261Z,990.24
2018-06-25T08:42:01.372Z,990.24
2018-06-25T08:43:01.279Z,990.25
2018-06-25T08:44:01.284Z,990.28
2018-06-25T08:45:01.322Z,990.28
2018-06-25T08:46:01.326Z,990.30
2018-06-25T08:47:01.300Z,990.32
2018-06-25T08:48:01.324Z,990.34
2018-06-25T08:49:01.309Z,990.30
2018-06-25T08:50:01.319Z,990.35
2018-06-25T08:51:01.324Z,990.32
2018-06-25T08:52:01.393Z,990.34
2018-06-25T08:53:01.333Z,990.37
2018-06-25T08:54:01.343Z,990.35
2018-06-25T08:55:01.359Z,990.35
2018-06-25T08:56:01.353Z,990.37
2018-06-25T08:57:01.450Z,990.38
2018-06-25T08:58:01.381Z,990.37
2018-06-25T08:59:01.372Z,990.34
2018-06-25T09:00:01.384Z,990.31
2018-06-25T09:01:01.384Z,990.32
2018-06-25T09:02:01.397Z,990.33
2018-06-25T09:03:01.477Z,990.34
2018-06-25T09:04:01.422Z,990.32
2018-06-25T09:05:01.409Z,990.30
2018-06-25T09:06:01.423Z,990.36
2018-06-25T09:07:01.424Z,990.44
2018-06-25T09:08:01.460Z,990.38
2018-06-25T09:09:01.439Z,990.50
2018-06-25T09:10:01.460Z,990.40
2018-06-25T09:11:01.464Z,990.41
2018-06-25T09:12:02.560Z,990.38
2018-06-25T09:13:01.513Z,990.38
2018-06-25T09:14:01.471Z,990.37
2018-06-25T09:15:01.526Z,990.38
2018-06-25T09:16:01.500Z,990.36
2018-06-25T09:17:01.493Z,990.38
2018-06-25T09:18:01.503Z,990.35
2018-06-25T09:19:01.514Z,990.37
2018-06-25T09:20:01.513Z,990.35
2018-06-25T09:21:01.561Z,990.37
2018-06-25T09:22:01.579Z,990.37
2018-06-25T09:23:01.534Z,990.38
2018-06-25T09:24:01.579Z,990.39
2018-06-25T09:25:01.621Z,990.39
2018-06-25T09:26:01.583Z,990.39
2018-06-25T09:27:01.589Z,990.36
2018-06-25T09:28:01.682Z,990.41
2018-06-25T09:29:01.624Z,990.40
2018-06-25T09:30:01.666Z,990.42
2018-06-25T09:31:01.624Z,990.44
2018-06-25T09:32:01.618Z,990.46
2018-06-25T09:33:01.622Z,990.45
2018-06-25T09:34:01.920Z,990.47
2018-06-25T09:35:01.665Z,990.45
2018-06-25T09:36:01.647Z,990.47
2018-06-25T09:37:01.640Z,990.44
2018-06-25T09:38:01.650Z,990.44
2018-06-25T09:39:01.645Z,990.45
2018-06-25T09:40:01.654Z,990.44
2018-06-25T09:41:02.218Z,990.43
2018-06-25T09:42:02.497Z,990.45
2018-06-25T09:43:01.675Z,990.45
2018-06-25T09:44:01.709Z,990.47
2018-06-25T09:45:01.694Z,990.50
2018-06-25T09:46:01.815Z,990.46
2018-06-25T09:47:01.828Z,990.49
2018-06-25T09:48:01.732Z,990.49
2018-06-25T09:49:01.755Z,990.50
2018-06-25T09:50:01.772Z,990.51
2018-06-25T09:51:01.774Z,990.54
2018-06-25T09:52:01.735Z,990.52
2018-06-25T09:53:01.786Z,990.55
2018-06-25T09:54:01.867Z,990.53
2018-06-25T09:55:01.807Z,990.50
2018-06-25T09:56:01.788Z,990.54
2018-06-25T09:57:01.821Z,990.54
2018-06-25T09:58:01.915Z,990.52
2018-06-25T09:59:01.855Z,990.53
2018-06-25T10:00:01.880Z,990.51
2018-06-25T10:01:01.868Z,990.50
2018-06-25T10:02:01.882Z,990.49
2018-06-25T10:03:02.536Z,990.46
2018-06-25T10:04:01.849Z,990.47
2018-06-25T10:05:01.895Z,990.48
2018-06-25T10:06:01.874Z,990.54
2018-06-25T10:07:01.925Z,990.49
2018-06-25T10:08:01.927Z,990.53
2018-06-25T10:09:01.910Z,990.59
2018-06-25T10:10:02.549Z,990.63
2018-06-25T10:11:01.958Z,990.66
2018-06-25T10:12:01.954Z,990.63
2018-06-25T10:13:01.945Z,990.54
2018-06-25T10:14:01.938Z,990.57
2018-06-25T10:15:01.930Z,990.57
2018-06-25T10:16:01.938Z,990.57
2018-06-25T10:17:01.962Z,990.58
2018-06-25T10:18:02.018Z,990.55
2018-06-25T10:19:02.008Z,990.56
2018-06-25T10:20:02.018Z,990.50
2018-06-25T10:21:02.023Z,990.50
2018-06-25T10:22:02.015Z,990.47
2018-06-25T10:23:02.074Z,990.43
2018-06-25T10:24:02.040Z,990.44
2018-06-25T10:25:01.996Z,990.42
2018-06-25T10:26:02.064Z,990.47
2018-06-25T10:27:02.019Z,990.52
2018-06-25T10:28:02.030Z,990.48
2018-06-25T10:29:02.070Z,990.44
2018-06-25T10:30:02.060Z,990.42
2018-06-25T10:31:02.074Z,990.42
2018-06-25T10:32:02.100Z,990.43
2018-06-25T10:33:02.057Z,990.43
2018-06-25T10:34:02.073Z,990.45
2018-06-25T10:35:02.087Z,990.43
2018-06-25T10:36:02.110Z,990.38
2018-06-25T10:37:02.144Z,990.38
2018-06-25T10:38:02.178Z,990.39
2018-06-25T10:39:02.080Z,990.34
2018-06-25T10:40:02.091Z,990.32
2018-06-25T10:41:02.205Z,990.40
2018-06-25T10:42:02.234Z,990.38
2018-06-25T10:43:02.181Z,990.38
2018-06-25T10:44:02.165Z,990.31
2018-06-25T10:45:02.210Z,990.39
2018-06-25T10:46:02.171Z,990.35
2018-06-25T10:47:02.146Z,990.43
2018-06-25T10:48:02.154Z,990.40
2018-06-25T10:49:02.516Z,990.42
2018-06-25T10:50:02.170Z,990.38
2018-06-25T10:51:02.207Z,990.37
2018-06-25T10:52:02.208Z,990.34
2018-06-25T10:53:02.199Z,990.35
2018-06-25T10:54:02.237Z,990.37
2018-06-25T10:55:02.215Z,990.38
2018-06-25T10:56:02.295Z,990.35
2018-06-25T10:57:02.226Z,990.33
2018-06-25T10:58:02.234Z,990.35
2018-06-25T10:59:02.239Z,990.35
